createdAt,value
2018-10-18T00:00:15.461Z,1012.51
2018-10-18T00:01:15.356Z,1012.52
2018-10-18T00:02:15.401Z,1012.52
2018-10-18T00:03:15.355Z,1012.53
2018-10-18T00:04:15.313Z,1012.55
2018-10-18T00:05:15.300Z,1012.53
2018-10-18T00:06:15.366Z,1012.52
2018-10-18T00:07:15.272Z,1012.54
2018-10-18T00:08:15.413Z,1012.5
2018-10-18T00:09:15.242Z,1012.51
2018-10-18T00:10:15.232Z,1012.5
2018-10-18T00:11:15.215Z,1012.5
2018-10-18T00:12:15.317Z,1012.5
2018-10-18T00:13:15.189Z,1012.47
2018-10-18T00:14:15.244Z,1012.49
2018-10-18T00:15:15.160Z,1012.48
2018-10-18T00:16:15.149Z,1012.5
2018-10-18T00:17:15.131Z,1012.48
2018-10-18T00:18:15.239Z,1012.49
2018-10-18T00:19:15.105Z,1012.48
2018-10-18T00:20:15.171Z,1012.49
2018-10-18T00:21:15.075Z,1012.46
2018-10-18T00:22:15.062Z,1012.51
2018-10-18T00:23:15.048Z,1012.5
2018-10-18T00:24:15.136Z,1012.52
2018-10-18T00:25:15.021Z,1012.53
2018-10-18T00:26:15.203Z,1012.52
2018-10-18T00:27:14.991Z,1012.54
2018-10-18T00:28:14.981Z,1012.57
2018-10-18T00:29:14.967Z,1012.54
2018-10-18T00:30:15.001Z,1012.53
2018-10-18T00:31:14.935Z,1012.53
2018-10-18T00:32:15.123Z,1012.55
2018-10-18T00:33:14.908Z,1012.51
2018-10-18T00:34:14.893Z,1012.52
2018-10-18T00:35:14.878Z,1012.5
2018-10-18T00:36:14.971Z,1012.5
2018-10-18T00:37:14.859Z,1012.55
2018-10-18T00:38:14.919Z,1012.53
2018-10-18T00:39:14.823Z,1012.54
2018-10-18T00:40:14.809Z,1012.51
2018-10-18T00:41:14.793Z,1012.55
2018-10-18T00:42:14.835Z,1012.55
2018-10-18T00:43:14.767Z,1012.54
2018-10-18T00:44:14.904Z,1012.55
2018-10-18T00:45:14.744Z,1012.54
2018-10-18T00:46:14.726Z,1012.55
2018-10-18T00:47:14.708Z,1012.56
2018-10-18T00:48:14.842Z,1012.56
2018-10-18T00:49:14.680Z,1012.59
2018-10-18T00:50:14.746Z,1012.58
2018-10-18T00:51:14.652Z,1012.62
2018-10-18T00:52:14.640Z,1012.61
2018-10-18T00:53:14.624Z,1012.63
2018-10-18T00:54:14.724Z,1012.63
2018-10-18T00:55:14.597Z,1012.64
2018-10-18T00:56:14.689Z,1012.66
2018-10-18T00:57:14.568Z,1012.72
2018-10-18T00:58:14.553Z,1012.7
2018-10-18T00:59:14.540Z,1012.69
2018-10-18T01:00:14.655Z,1012.74
2018-10-18T01:01:14.509Z,1012.77
2018-10-18T01:02:14.592Z,1012.75
2018-10-18T01:03:14.482Z,1012.77
2018-10-18T01:04:14.469Z,1012.81
2018-10-18T01:05:14.452Z,1012.79
2018-10-18T01:06:14.444Z,1012.83
2018-10-18T01:07:14.424Z,1012.87
2018-10-18T01:08:14.545Z,1012.87
2018-10-18T01:09:14.398Z,1012.85
2018-10-18T01:10:14.391Z,1012.85
2018-10-18T01:11:14.367Z,1012.92
2018-10-18T01:12:14.521Z,1012.91
2018-10-18T01:13:14.340Z,1012.88
2018-10-18T01:14:14.485Z,1012.89
2018-10-18T01:15:14.312Z,1012.91
2018-10-18T01:16:14.296Z,1012.9
2018-10-18T01:17:14.289Z,1012.92
2018-10-18T01:18:14.384Z,1012.92
2018-10-18T01:19:14.258Z,1012.88
2018-10-18T01:20:14.339Z,1012.94
2018-10-18T01:21:14.226Z,1012.96
2018-10-18T01:22:14.211Z,1012.92
2018-10-18T01:23:14.198Z,1012.94
2018-10-18T01:24:14.268Z,1012.9
2018-10-18T01:25:14.168Z,1012.92
2018-10-18T01:26:14.267Z,1012.94
2018-10-18T01:27:14.142Z,1012.93
2018-10-18T01:28:14.127Z,1012.95
2018-10-18T01:29:14.112Z,1012.96
2018-10-18T01:30:14.182Z,1012.99
2018-10-18T01:31:14.084Z,1012.99
2018-10-18T01:32:14.161Z,1013
2018-10-18T01:33:14.055Z,1013.01
2018-10-18T01:34:14.041Z,1013
2018-10-18T01:35:14.028Z,1013.06
2018-10-18T01:36:14.115Z,1013.09
2018-10-18T01:37:13.999Z,1013.07
2018-10-18T01:38:14.013Z,1013.07
2018-10-18T01:39:13.972Z,1013.08
2018-10-18T01:40:13.955Z,1013.09
2018-10-18T01:41:13.945Z,1013.1
2018-10-18T01:42:14.071Z,1013.09
2018-10-18T01:43:13.916Z,1013.05
2018-10-18T01:44:14.031Z,1013.06
2018-10-18T01:45:13.886Z,1013.08
2018-10-18T01:46:13.871Z,1013.05
2018-10-18T01:47:13.857Z,1013.05
2018-10-18T01:48:13.941Z,1013.06
2018-10-18T01:49:13.832Z,1013.02
2018-10-18T01:50:13.906Z,1013.03
2018-10-18T01:51:13.801Z,1013.06
2018-10-18T01:52:13.789Z,1013.04
2018-10-18T01:53:13.773Z,1013.04
2018-10-18T01:54:13.793Z,1013.03
2018-10-18T01:55:13.746Z,1013.06
2018-10-18T01:56:13.881Z,1013.03
2018-10-18T01:57:13.725Z,1013.07
2018-10-18T01:58:13.703Z,1013.06
2018-10-18T01:59:13.692Z,1013.06
2018-10-18T02:00:13.740Z,1013.06
2018-10-18T02:01:13.668Z,1013.05
2018-10-18T02:02:13.740Z,1013.04
2018-10-18T02:03:13.648Z,1013.04
2018-10-18T02:04:13.622Z,1013.06
2018-10-18T02:05:13.611Z,1013.06
2018-10-18T02:06:13.654Z,1013.05
2018-10-18T02:07:13.581Z,1013.04
2018-10-18T02:08:13.629Z,1013.06
2018-10-18T02:09:13.552Z,1013.11
2018-10-18T02:10:13.539Z,1013.12
2018-10-18T02:11:13.524Z,1013.12
2018-10-18T02:12:13.595Z,1013.09
2018-10-18T02:13:13.498Z,1013.13
2018-10-18T02:14:13.483Z,1013.11
2018-10-18T02:15:13.474Z,1013.11
2018-10-18T02:16:13.473Z,1013.11
2018-10-18T02:17:13.447Z,1013.13
2018-10-18T02:18:13.451Z,1013.1
2018-10-18T02:19:13.445Z,1013.11
2018-10-18T02:20:13.400Z,1013.1
2018-10-18T02:21:13.390Z,1013.1
2018-10-18T02:22:13.373Z,1013.1
2018-10-18T02:23:13.360Z,1013.09
2018-10-18T02:24:13.445Z,1013.11
2018-10-18T02:25:13.388Z,1013.1
2018-10-18T02:26:13.318Z,1013.11
2018-10-18T02:27:13.309Z,1013.06
2018-10-18T02:28:13.293Z,1013.07
2018-10-18T02:29:13.280Z,1013.07
2018-10-18T02:30:13.366Z,1013.1
2018-10-18T02:31:13.249Z,1013.11
2018-10-18T02:32:13.236Z,1013.08
2018-10-18T02:33:13.223Z,1013.1
2018-10-18T02:34:13.209Z,1013.09
2018-10-18T02:35:13.195Z,1013.12
2018-10-18T02:36:13.226Z,1013.11
2018-10-18T02:37:13.168Z,1013.07
2018-10-18T02:38:13.152Z,1013.11
2018-10-18T02:39:13.142Z,1013.12
2018-10-18T02:40:13.131Z,1013.14
2018-10-18T02:41:13.113Z,1013.12
2018-10-18T02:42:13.152Z,1013.12
2018-10-18T02:43:13.085Z,1013.14
2018-10-18T02:44:13.073Z,1013.16
2018-10-18T02:45:13.059Z,1013.14
2018-10-18T02:46:13.043Z,1013.17
2018-10-18T02:47:13.031Z,1013.17
2018-10-18T02:48:13.132Z,1013.17
2018-10-18T02:49:13.004Z,1013.18
2018-10-18T02:50:12.996Z,1013.16
2018-10-18T02:51:12.978Z,1013.17
2018-10-18T02:52:12.969Z,1013.19
2018-10-18T02:53:12.948Z,1013.2
2018-10-18T02:54:13.022Z,1013.19
2018-10-18T02:55:12.926Z,1013.2
2018-10-18T02:56:12.911Z,1013.17
2018-10-18T02:57:12.896Z,1013.21
2018-10-18T02:58:12.883Z,1013.19
2018-10-18T02:59:12.870Z,1013.23
2018-10-18T03:00:12.939Z,1013.19
2018-10-18T03:01:12.841Z,1013.2
2018-10-18T03:02:12.829Z,1013.23
2018-10-18T03:03:12.820Z,1013.25
2018-10-18T03:04:12.802Z,1013.21
2018-10-18T03:05:12.787Z,1013.21
2018-10-18T03:06:12.868Z,1013.21
2018-10-18T03:07:12.759Z,1013.19
2018-10-18T03:08:12.747Z,1013.16
2018-10-18T03:09:12.734Z,1013.16
2018-10-18T03:10:12.717Z,1013.16
2018-10-18T03:11:12.704Z,1013.12
2018-10-18T03:12:12.761Z,1013.16
2018-10-18T03:13:12.723Z,1013.17
2018-10-18T03:14:12.666Z,1013.17
2018-10-18T03:15:12.651Z,1013.18
2018-10-18T03:16:12.804Z,1013.18
2018-10-18T03:17:12.623Z,1013.18
2018-10-18T03:18:12.660Z,1013.22
2018-10-18T03:19:12.608Z,1013.18
2018-10-18T03:20:12.582Z,1013.23
2018-10-18T03:21:12.573Z,1013.24
2018-10-18T03:22:12.556Z,1013.27
2018-10-18T03:23:12.542Z,1013.26
2018-10-18T03:24:12.543Z,1013.32
2018-10-18T03:25:12.515Z,1013.32
2018-10-18T03:26:12.503Z,1013.32
2018-10-18T03:27:12.487Z,1013.29
2018-10-18T03:28:12.475Z,1013.29
2018-10-18T03:29:12.462Z,1013.32
2018-10-18T03:30:12.560Z,1013.35
2018-10-18T03:31:12.435Z,1013.31
2018-10-18T03:32:12.428Z,1013.32
2018-10-18T03:33:12.409Z,1013.31
2018-10-18T03:34:12.395Z,1013.33
2018-10-18T03:35:12.382Z,1013.32
2018-10-18T03:36:12.495Z,1013.33
2018-10-18T03:37:12.356Z,1013.35
2018-10-18T03:38:12.339Z,1013.35
2018-10-18T03:39:12.329Z,1013.34
2018-10-18T03:40:12.312Z,1013.33
2018-10-18T03:41:12.354Z,1013.36
2018-10-18T03:42:12.401Z,1013.38
2018-10-18T03:43:12.273Z,1013.4
2018-10-18T03:44:12.259Z,1013.38
2018-10-18T03:45:12.245Z,1013.4
2018-10-18T03:46:12.241Z,1013.38
2018-10-18T03:47:12.221Z,1013.41
2018-10-18T03:48:12.279Z,1013.43
2018-10-18T03:49:12.206Z,1013.41
2018-10-18T03:50:12.177Z,1013.41
2018-10-18T03:51:12.164Z,1013.42
2018-10-18T03:52:12.150Z,1013.44
2018-10-18T03:53:12.138Z,1013.43
2018-10-18T03:54:12.254Z,1013.45
2018-10-18T03:55:12.115Z,1013.46
2018-10-18T03:56:12.095Z,1013.44
2018-10-18T03:57:12.082Z,1013.47
2018-10-18T03:58:12.069Z,1013.46
2018-10-18T03:59:12.057Z,1013.46
2018-10-18T04:00:12.088Z,1013.43
2018-10-18T04:01:12.030Z,1013.45
2018-10-18T04:02:12.016Z,1013.46
2018-10-18T04:03:12.003Z,1013.48
2018-10-18T04:04:12.001Z,1013.43
2018-10-18T04:05:11.976Z,1013.45
2018-10-18T04:06:12.030Z,1013.46
2018-10-18T04:07:11.948Z,1013.46
2018-10-18T04:08:11.940Z,1013.49
2018-10-18T04:09:11.922Z,1013.49
2018-10-18T04:10:11.906Z,1013.48
2018-10-18T04:11:11.895Z,1013.52
2018-10-18T04:12:11.927Z,1013.51
2018-10-18T04:13:11.920Z,1013.51
2018-10-18T04:14:11.859Z,1013.48
2018-10-18T04:15:11.842Z,1013.52
2018-10-18T04:16:11.826Z,1013.51
2018-10-18T04:17:11.812Z,1013.53
2018-10-18T04:18:11.988Z,1013.55
2018-10-18T04:19:11.790Z,1013.53
2018-10-18T04:20:11.774Z,1013.54
2018-10-18T04:21:11.759Z,1013.58
2018-10-18T04:22:11.748Z,1013.56
2018-10-18T04:23:11.734Z,1013.56
2018-10-18T04:24:11.852Z,1013.54
2018-10-18T04:25:11.708Z,1013.54
2018-10-18T04:26:11.693Z,1013.53
2018-10-18T04:27:11.684Z,1013.55
2018-10-18T04:28:11.665Z,1013.54
2018-10-18T04:29:11.654Z,1013.58
2018-10-18T04:30:11.727Z,1013.57
2018-10-18T04:31:11.628Z,1013.6
2018-10-18T04:32:11.615Z,1013.56
2018-10-18T04:33:11.598Z,1013.6
2018-10-18T04:34:11.586Z,1013.57
2018-10-18T04:35:11.574Z,1013.58
2018-10-18T04:36:11.575Z,1013.63
2018-10-18T04:37:11.598Z,1013.62
2018-10-18T04:38:11.531Z,1013.61
2018-10-18T04:39:11.520Z,1013.63
2018-10-18T04:40:11.505Z,1013.65
2018-10-18T04:41:11.492Z,1013.66
2018-10-18T04:42:11.594Z,1013.65
2018-10-18T04:43:11.463Z,1013.64
2018-10-18T04:44:11.452Z,1013.64
2018-10-18T04:45:11.439Z,1013.61
2018-10-18T04:46:11.422Z,1013.63
2018-10-18T04:47:11.481Z,1013.65
2018-10-18T04:48:11.533Z,1013.62
2018-10-18T04:49:11.384Z,1013.59
2018-10-18T04:50:11.372Z,1013.6
2018-10-18T04:51:11.359Z,1013.65
2018-10-18T04:52:11.344Z,1013.6
2018-10-18T04:53:11.332Z,1013.61
2018-10-18T04:54:11.315Z,1013.6
2018-10-18T04:55:11.370Z,1013.6
2018-10-18T04:56:11.294Z,1013.6
2018-10-18T04:57:11.277Z,1013.61
2018-10-18T04:58:11.270Z,1013.64
2018-10-18T04:59:11.253Z,1013.67
2018-10-18T05:00:11.236Z,1013.7
2018-10-18T05:01:11.309Z,1013.72
2018-10-18T05:02:11.209Z,1013.73
2018-10-18T05:03:11.195Z,1013.7
2018-10-18T05:04:11.183Z,1013.73
2018-10-18T05:05:11.173Z,1013.71
2018-10-18T05:06:11.156Z,1013.71
2018-10-18T05:07:11.256Z,1013.73
2018-10-18T05:08:11.130Z,1013.71
2018-10-18T05:09:11.114Z,1013.68
2018-10-18T05:10:11.102Z,1013.64
2018-10-18T05:11:11.094Z,1013.65
2018-10-18T05:12:11.074Z,1013.69
2018-10-18T05:13:11.151Z,1013.7
2018-10-18T05:14:11.050Z,1013.71
2018-10-18T05:15:11.032Z,1013.72
2018-10-18T05:16:11.022Z,1013.73
2018-10-18T05:17:11.007Z,1013.77
2018-10-18T05:18:10.993Z,1013.8
2018-10-18T05:19:11.086Z,1013.79
2018-10-18T05:20:10.970Z,1013.77
2018-10-18T05:21:10.953Z,1013.79
2018-10-18T05:22:10.944Z,1013.78
2018-10-18T05:23:10.928Z,1013.81
2018-10-18T05:24:10.915Z,1013.76
2018-10-18T05:25:11.025Z,1013.79
2018-10-18T05:26:10.885Z,1013.79
2018-10-18T05:27:10.873Z,1013.79
2018-10-18T05:28:10.862Z,1013.76
2018-10-18T05:29:10.848Z,1013.79
2018-10-18T05:30:10.832Z,1013.8
2018-10-18T05:31:10.829Z,1013.86
2018-10-18T05:32:10.810Z,1013.77
2018-10-18T05:33:10.821Z,1013.83
2018-10-18T05:34:10.779Z,1013.82
2018-10-18T05:35:10.770Z,1013.81
2018-10-18T05:36:10.751Z,1013.83
2018-10-18T05:37:10.816Z,1013.83
2018-10-18T05:38:10.724Z,1013.81
2018-10-18T05:39:10.709Z,1013.85
2018-10-18T05:40:10.696Z,1013.84
2018-10-18T05:41:10.683Z,1013.91
2018-10-18T05:42:10.670Z,1013.94
2018-10-18T05:43:10.722Z,1013.9
2018-10-18T05:44:10.645Z,1013.93
2018-10-18T05:45:10.631Z,1013.87
2018-10-18T05:46:10.620Z,1013.91
2018-10-18T05:47:10.703Z,1013.86
2018-10-18T05:48:10.593Z,1013.88
2018-10-18T05:49:10.663Z,1013.91
2018-10-18T05:50:10.564Z,1013.92
2018-10-18T05:51:10.552Z,1013.87
2018-10-18T05:52:10.536Z,1013.91
2018-10-18T05:53:10.839Z,1013.88
2018-10-18T05:54:10.561Z,1013.91
2018-10-18T05:55:10.575Z,1013.9
2018-10-18T05:56:10.480Z,1013.89
2018-10-18T05:57:10.469Z,1013.91
2018-10-18T05:58:10.455Z,1013.92
2018-10-18T05:59:10.441Z,1013.9
2018-10-18T06:00:10.455Z,1013.97
2018-10-18T06:01:10.440Z,1013.9
2018-10-18T06:02:10.405Z,1013.93
2018-10-18T06:03:10.387Z,1013.95
2018-10-18T06:04:10.376Z,1013.92
2018-10-18T06:05:10.359Z,1013.96
2018-10-18T06:06:10.350Z,1013.94
2018-10-18T06:07:10.490Z,1013.94
2018-10-18T06:08:10.323Z,1013.92
2018-10-18T06:09:10.306Z,1013.89
2018-10-18T06:10:10.498Z,1013.92
2018-10-18T06:11:10.279Z,1013.94
2018-10-18T06:12:10.266Z,1013.96
2018-10-18T06:13:10.415Z,1013.97
2018-10-18T06:14:10.240Z,1014.01
2018-10-18T06:15:10.227Z,1014.02
2018-10-18T06:16:10.212Z,1014.01
2018-10-18T06:17:10.199Z,1014.04
2018-10-18T06:18:10.191Z,1014.01
2018-10-18T06:19:10.291Z,1014.04
2018-10-18T06:20:10.157Z,1014.04
2018-10-18T06:21:10.144Z,1014.01
2018-10-18T06:22:10.134Z,1014.03
2018-10-18T06:23:10.172Z,1014.03
2018-10-18T06:24:10.106Z,1014.04
2018-10-18T06:25:10.190Z,1014.03
2018-10-18T06:26:10.078Z,1014.02
2018-10-18T06:27:10.064Z,1014.07
2018-10-18T06:28:10.052Z,1014.06
2018-10-18T06:29:10.073Z,1014.06
2018-10-18T06:30:10.023Z,1014.06
2018-10-18T06:31:10.071Z,1014.08
2018-10-18T06:32:09.995Z,1014.1
2018-10-18T06:33:10.122Z,1014.11
2018-10-18T06:34:09.970Z,1014.14
2018-10-18T06:35:09.991Z,1014.18
2018-10-18T06:36:09.941Z,1014.2
2018-10-18T06:37:09.986Z,1014.19
2018-10-18T06:38:09.916Z,1014.2
2018-10-18T06:39:09.974Z,1014.21
2018-10-18T06:40:09.890Z,1014.21
2018-10-18T06:41:09.917Z,1014.27
2018-10-18T06:42:09.860Z,1014.23
2018-10-18T06:43:09.859Z,1014.26
2018-10-18T06:44:09.835Z,1014.26
2018-10-18T06:45:09.821Z,1014.31
2018-10-18T06:46:09.809Z,1014.27
2018-10-18T06:47:09.956Z,1014.25
2018-10-18T06:48:09.937Z,1014.29
2018-10-18T06:49:09.873Z,1014.32
2018-10-18T06:50:09.753Z,1014.31
2018-10-18T06:51:09.740Z,1014.3
2018-10-18T06:52:09.729Z,1014.32
2018-10-18T06:53:09.715Z,1014.32
2018-10-18T06:54:09.736Z,1014.35
2018-10-18T06:55:09.750Z,1014.33
2018-10-18T06:56:09.674Z,1014.33
2018-10-18T06:57:09.660Z,1014.33
2018-10-18T06:58:09.647Z,1014.39
2018-10-18T06:59:09.634Z,1014.36
2018-10-18T07:00:09.623Z,1014.38
2018-10-18T07:01:09.605Z,1014.39
2018-10-18T07:02:09.593Z,1014.38
2018-10-18T07:03:09.581Z,1014.39
2018-10-18T07:04:09.574Z,1014.44
2018-10-18T07:05:09.555Z,1014.39
2018-10-18T07:06:09.565Z,1014.39
2018-10-18T07:07:09.528Z,1014.43
2018-10-18T07:08:09.517Z,1014.44
2018-10-18T07:09:09.502Z,1014.44
2018-10-18T07:10:09.490Z,1014.48
2018-10-18T07:11:09.595Z,1014.47
2018-10-18T07:12:09.508Z,1014.46
2018-10-18T07:13:09.449Z,1014.49
2018-10-18T07:14:09.437Z,1014.48
2018-10-18T07:15:09.423Z,1014.48
2018-10-18T07:16:09.410Z,1014.55
2018-10-18T07:17:09.396Z,1014.55
2018-10-18T07:18:09.439Z,1014.51
2018-10-18T07:19:09.370Z,1014.54
2018-10-18T07:20:09.354Z,1014.57
2018-10-18T07:21:09.345Z,1014.58
2018-10-18T07:22:09.327Z,1014.6
2018-10-18T07:23:09.314Z,1014.59
2018-10-18T07:24:09.399Z,1014.59
2018-10-18T07:25:09.333Z,1014.58
2018-10-18T07:26:09.277Z,1014.6
2018-10-18T07:27:09.262Z,1014.61
2018-10-18T07:28:09.252Z,1014.61
2018-10-18T07:29:09.239Z,1014.63
2018-10-18T07:30:09.320Z,1014.61
2018-10-18T07:31:09.208Z,1014.59
2018-10-18T07:32:09.199Z,1014.58
2018-10-18T07:33:09.184Z,1014.64
2018-10-18T07:34:09.169Z,1014.7
2018-10-18T07:35:09.229Z,1014.7
2018-10-18T07:36:09.178Z,1014.71
2018-10-18T07:37:09.131Z,1014.67
2018-10-18T07:38:09.117Z,1014.7
2018-10-18T07:39:09.104Z,1014.71
2018-10-18T07:40:09.091Z,1014.76
2018-10-18T07:41:09.141Z,1014.74
2018-10-18T07:42:09.195Z,1014.73
2018-10-18T07:43:09.051Z,1014.76
2018-10-18T07:44:09.071Z,1014.73
2018-10-18T07:45:09.025Z,1014.73
2018-10-18T07:46:09.015Z,1014.76
2018-10-18T07:47:08.998Z,1014.78
2018-10-18T07:48:09.072Z,1014.79
2018-10-18T07:49:08.973Z,1014.83
2018-10-18T07:50:08.959Z,1014.8
2018-10-18T07:51:08.946Z,1014.82
2018-10-18T07:52:08.933Z,1014.83
2018-10-18T07:53:09.248Z,1014.82
2018-10-18T07:54:08.961Z,1014.83
2018-10-18T07:55:08.895Z,1014.83
2018-10-18T07:56:08.886Z,1014.82
2018-10-18T07:57:08.871Z,1014.83
2018-10-18T07:58:08.854Z,1014.82
2018-10-18T07:59:08.840Z,1014.82
2018-10-18T08:00:08.929Z,1014.81
2018-10-18T08:01:08.815Z,1014.83
2018-10-18T08:02:08.801Z,1014.8
2018-10-18T08:03:08.789Z,1014.82
2018-10-18T08:04:08.776Z,1014.82
2018-10-18T08:05:08.764Z,1014.84
2018-10-18T08:06:08.750Z,1014.82
2018-10-18T08:07:08.795Z,1014.8
2018-10-18T08:08:08.732Z,1014.81
2018-10-18T08:09:08.710Z,1014.84
2018-10-18T08:10:08.699Z,1014.85
2018-10-18T08:11:08.817Z,1014.86
2018-10-18T08:12:08.670Z,1014.88
2018-10-18T08:13:08.780Z,1014.87
2018-10-18T08:14:08.646Z,1014.9
2018-10-18T08:15:08.662Z,1014.9
2018-10-18T08:16:08.620Z,1014.89
2018-10-18T08:17:08.647Z,1014.91
2018-10-18T08:18:08.593Z,1014.9
2018-10-18T08:19:08.613Z,1014.87
2018-10-18T08:20:08.572Z,1014.86
2018-10-18T08:21:08.557Z,1014.87
2018-10-18T08:22:08.543Z,1014.86
2018-10-18T08:23:08.531Z,1014.88
2018-10-18T08:24:08.518Z,1014.89
2018-10-18T08:25:08.522Z,1014.86
2018-10-18T08:26:08.491Z,1014.87
2018-10-18T08:27:08.479Z,1014.89
2018-10-18T08:28:08.465Z,1014.92
2018-10-18T08:29:08.487Z,1014.92
2018-10-18T08:30:08.444Z,1014.91
2018-10-18T08:31:08.470Z,1014.93
2018-10-18T08:32:08.417Z,1014.93
2018-10-18T08:33:08.401Z,1014.96
2018-10-18T08:34:08.388Z,1014.97
2018-10-18T08:35:08.377Z,1014.92
2018-10-18T08:36:08.366Z,1014.95
2018-10-18T08:37:08.496Z,1014.94
2018-10-18T08:38:08.347Z,1014.93
2018-10-18T08:39:08.325Z,1014.95
2018-10-18T08:40:08.311Z,1014.96
2018-10-18T08:41:08.297Z,1014.95
2018-10-18T08:42:08.290Z,1014.97
2018-10-18T08:43:08.316Z,1014.99
2018-10-18T08:44:08.274Z,1015
2018-10-18T08:45:08.248Z,1015.01
2018-10-18T08:46:08.234Z,1015.01
2018-10-18T08:47:08.223Z,1015.03
2018-10-18T08:48:08.211Z,1015.03
2018-10-18T08:49:08.220Z,1015.03
2018-10-18T08:50:08.186Z,1015.05
2018-10-18T08:51:08.169Z,1015.07
2018-10-18T08:52:08.158Z,1015.06
2018-10-18T08:53:08.147Z,1015.06
2018-10-18T08:54:08.131Z,1015.06
2018-10-18T08:55:08.219Z,1015.12
2018-10-18T08:56:08.106Z,1015.1
2018-10-18T08:57:08.093Z,1015.12
2018-10-18T08:58:08.082Z,1015.15
2018-10-18T08:59:08.125Z,1015.18
2018-10-18T09:00:08.054Z,1015.16
2018-10-18T09:01:08.109Z,1015.16
2018-10-18T09:02:08.029Z,1015.17
2018-10-18T09:03:08.017Z,1015.19
2018-10-18T09:04:08.006Z,1015.19
2018-10-18T09:05:07.994Z,1015.17
2018-10-18T09:06:07.979Z,1015.21
2018-10-18T09:07:08.024Z,1015.22
2018-10-18T09:08:07.960Z,1015.22
2018-10-18T09:09:08.101Z,1015.21
2018-10-18T09:10:07.930Z,1015.19
2018-10-18T09:11:07.917Z,1015.23
2018-10-18T09:12:07.905Z,1015.22
2018-10-18T09:13:07.965Z,1015.22
2018-10-18T09:14:07.880Z,1015.21
2018-10-18T09:15:07.868Z,1015.21
2018-10-18T09:16:08.013Z,1015.22
2018-10-18T09:17:07.843Z,1015.2
2018-10-18T09:18:07.831Z,1015.28
2018-10-18T09:19:07.861Z,1015.26
2018-10-18T09:20:07.807Z,1015.28
2018-10-18T09:21:07.801Z,1015.27
2018-10-18T09:22:07.782Z,1015.22
2018-10-18T09:23:07.770Z,1015.24
2018-10-18T09:24:07.757Z,1015.25
2018-10-18T09:25:07.854Z,1015.21
2018-10-18T09:26:07.737Z,1015.2
2018-10-18T09:27:07.724Z,1015.22
2018-10-18T09:28:07.709Z,1015.23
2018-10-18T09:29:07.697Z,1015.26
2018-10-18T09:30:07.720Z,1015.26
2018-10-18T09:31:07.754Z,1015.27
2018-10-18T09:32:07.661Z,1015.31
2018-10-18T09:33:07.651Z,1015.34
2018-10-18T09:34:07.638Z,1015.31
2018-10-18T09:35:07.625Z,1015.3
2018-10-18T09:36:07.614Z,1015.28
2018-10-18T09:37:07.622Z,1015.3
2018-10-18T09:38:07.592Z,1015.33
2018-10-18T09:39:07.579Z,1015.3
2018-10-18T09:40:07.570Z,1015.28
2018-10-18T09:41:07.556Z,1015.26
2018-10-18T09:42:07.542Z,1015.27
2018-10-18T09:43:07.599Z,1015.23
2018-10-18T09:44:07.577Z,1015.25
2018-10-18T09:45:07.511Z,1015.23
2018-10-18T09:46:07.496Z,1015.24
2018-10-18T09:47:07.488Z,1015.24
2018-10-18T09:48:07.479Z,1015.24
2018-10-18T09:49:07.530Z,1015.2
2018-10-18T09:50:07.452Z,1015.23
2018-10-18T09:51:07.442Z,1015.21
2018-10-18T09:52:07.432Z,1015.23
2018-10-18T09:53:07.417Z,1015.33
2018-10-18T09:54:07.406Z,1015.3
2018-10-18T09:55:07.573Z,1015.31
2018-10-18T09:56:07.527Z,1015.33
2018-10-18T09:57:07.376Z,1015.37
2018-10-18T09:58:07.361Z,1015.4
2018-10-18T09:59:07.348Z,1015.38
2018-10-18T10:00:07.336Z,1015.36
2018-10-18T10:01:07.361Z,1015.39
2018-10-18T10:02:07.313Z,1015.37
2018-10-18T10:03:07.303Z,1015.38
2018-10-18T10:04:07.305Z,1015.38
2018-10-18T10:05:07.279Z,1015.38
2018-10-18T10:06:07.267Z,1015.4
2018-10-18T10:07:07.266Z,1015.39
2018-10-18T10:08:07.245Z,1015.36
2018-10-18T10:09:07.237Z,1015.37
2018-10-18T10:10:07.222Z,1015.36
2018-10-18T10:11:07.209Z,1015.4
2018-10-18T10:12:07.199Z,1015.38
2018-10-18T10:13:07.275Z,1015.4
2018-10-18T10:14:07.180Z,1015.41
2018-10-18T10:15:07.167Z,1015.42
2018-10-18T10:16:07.152Z,1015.43
2018-10-18T10:17:07.149Z,1015.44
2018-10-18T10:18:07.141Z,1015.43
2018-10-18T10:19:07.172Z,1015.45
2018-10-18T10:20:07.109Z,1015.47
2018-10-18T10:21:07.099Z,1015.48
2018-10-18T10:22:07.086Z,1015.49
2018-10-18T10:23:07.075Z,1015.49
2018-10-18T10:24:07.064Z,1015.47
2018-10-18T10:25:07.066Z,1015.47
2018-10-18T10:26:07.040Z,1015.48
2018-10-18T10:27:07.028Z,1015.48
2018-10-18T10:28:07.022Z,1015.46
2018-10-18T10:29:07.006Z,1015.49
2018-10-18T10:30:07.017Z,1015.5
2018-10-18T10:31:07.033Z,1015.5
2018-10-18T10:32:06.975Z,1015.51
2018-10-18T10:33:07.073Z,1015.5
2018-10-18T10:34:06.950Z,1015.47
2018-10-18T10:35:06.967Z,1015.52
2018-10-18T10:36:06.929Z,1015.51
2018-10-18T10:37:06.975Z,1015.53
2018-10-18T10:38:06.905Z,1015.48
2018-10-18T10:39:07.004Z,1015.53
2018-10-18T10:40:06.913Z,1015.6
2018-10-18T10:41:06.940Z,1015.57
2018-10-18T10:42:06.891Z,1015.46
2018-10-18T10:43:06.911Z,1015.43
2018-10-18T10:44:06.912Z,1015.46
2018-10-18T10:45:06.903Z,1015.42
2018-10-18T10:46:06.864Z,1015.37
2018-10-18T10:47:06.806Z,1015.37
2018-10-18T10:48:06.854Z,1015.36
2018-10-18T10:49:06.836Z,1015.35
2018-10-18T10:50:06.794Z,1015.35
2018-10-18T10:51:06.857Z,1015.31
2018-10-18T10:52:06.832Z,1015.38
2018-10-18T10:53:06.741Z,1015.37
2018-10-18T10:54:06.826Z,1015.4
2018-10-18T10:55:06.717Z,1015.38
2018-10-18T10:56:06.790Z,1015.4
2018-10-18T10:57:06.716Z,1015.37
2018-10-18T10:58:06.788Z,1015.37
2018-10-18T10:59:06.722Z,1015.33
2018-10-18T11:00:06.792Z,1015.42
2018-10-18T11:01:06.656Z,1015.4
2018-10-18T11:02:06.808Z,1015.38
2018-10-18T11:03:06.684Z,1015.35
2018-10-18T11:04:06.622Z,1015.34
2018-10-18T11:05:06.613Z,1015.34
2018-10-18T11:06:06.702Z,1015.33
2018-10-18T11:07:06.591Z,1015.36
2018-10-18T11:08:06.591Z,1015.3
2018-10-18T11:09:06.660Z,1015.28
2018-10-18T11:10:06.560Z,1015.27
2018-10-18T11:11:06.551Z,1015.33
2018-10-18T11:12:06.574Z,1015.32
2018-10-18T11:13:06.532Z,1015.28
2018-10-18T11:14:06.683Z,1015.28
2018-10-18T11:15:06.591Z,1015.21
2018-10-18T11:16:06.504Z,1015.26
2018-10-18T11:17:06.531Z,1015.24
2018-10-18T11:18:06.549Z,1015.2
2018-10-18T11:19:06.474Z,1015.27
2018-10-18T11:20:06.547Z,1015.26
2018-10-18T11:21:06.553Z,1015.23
2018-10-18T11:22:06.443Z,1015.24
2018-10-18T11:23:06.434Z,1015.23
2018-10-18T11:24:06.524Z,1015.21
2018-10-18T11:25:06.416Z,1015.19
2018-10-18T11:26:06.482Z,1015.19
2018-10-18T11:27:06.474Z,1015.17
2018-10-18T11:28:06.384Z,1015.18
2018-10-18T11:29:06.383Z,1015.17
2018-10-18T11:30:06.434Z,1015.18
2018-10-18T11:31:06.357Z,1015.17
2018-10-18T11:32:06.401Z,1015.19
2018-10-18T11:33:06.485Z,1015.21
2018-10-18T11:34:06.327Z,1015.15
2018-10-18T11:35:06.317Z,1015.15
2018-10-18T11:36:06.373Z,1015.16
2018-10-18T11:37:06.296Z,1015.18
2018-10-18T11:38:06.348Z,1015.19
2018-10-18T11:39:06.277Z,1015.14
2018-10-18T11:40:06.268Z,1015.15
2018-10-18T11:41:06.261Z,1015.21
2018-10-18T11:42:06.351Z,1015.22
2018-10-18T11:43:06.239Z,1015.22
2018-10-18T11:44:06.253Z,1015.3
2018-10-18T11:45:06.222Z,1015.26
2018-10-18T11:46:06.217Z,1015.25
2018-10-18T11:47:06.199Z,1015.27
2018-10-18T11:48:06.226Z,1015.26
2018-10-18T11:49:06.180Z,1015.22
2018-10-18T11:50:06.203Z,1015.25
2018-10-18T11:51:06.161Z,1015.23
2018-10-18T11:52:06.189Z,1015.26
2018-10-18T11:53:06.342Z,1015.23
2018-10-18T11:54:06.238Z,1015.26
2018-10-18T11:55:06.119Z,1015.27
2018-10-18T11:56:06.167Z,1015.28
2018-10-18T11:57:06.101Z,1015.3
2018-10-18T11:58:06.088Z,1015.28
2018-10-18T11:59:06.160Z,1015.28
2018-10-18T12:00:06.068Z,1015.27
2018-10-18T12:01:06.065Z,1015.24
2018-10-18T12:02:06.112Z,1015.26
2018-10-18T12:03:06.038Z,1015.25
2018-10-18T12:04:06.028Z,1015.28
2018-10-18T12:05:06.073Z,1015.23
2018-10-18T12:06:06.006Z,1015.24
2018-10-18T12:07:05.996Z,1015.25
2018-10-18T12:08:06.056Z,1015.27